San Luis Valley Regional Bergman Field Alamosa US
ICAO: KALS
IATA: ALS
Category: Medium
Scheduled Services: No

Elevation: 7539 ft
TransAlt. 18000 ft.

Airport Communications:
ASOS:135.175
DENVER CNTR:128.375
DENVER RDO:122.15
CTAF/UNICOM:122.8

KALS Zoom In..

If you have problems with the map follow the link
https://www.worldairports.se/pages/airport.php?
ICAO=KALS

Runways:

(A) RW 02 length 8519 ft width 100 ft
ILS 111.90 / hdg 23

(B) RW 20 length 8519 ft width 100 ft
---- / hdg 203

Location; KALS
Day. 19 / Time. 14.52 Zulu
* Altimeter: 30.46
* Temperature: -18° c. 0.4°f.
* Wind from: 290° Speed 03 kn.
Dewpoint: -21° c.
Visibility: 10 Statute Miles.
Clouds: Clear (automated report).

KALS 191452Z AUTO 29003KT 10SM CLR M18/M21 A3046 RMK AO2 SLP426 T11781206 52014 $


Wind From 290°
Speed 03 kn.

 
 
jpsmedia worldairports.se 2020   terms of use